Airfield :







YOU CAN JOIN US ON...

 
LOGIN :

Register | Disclaimer

   EN    FR    IT 

 









Legend :    VFR   Marginal VFR   IFR   Intensive IFR   Very Intensive IFR
Visi :
Ceiling :
>= 8 km
>= 3000ft
5 to 8 km
1000 to 3000 ft
1500m to 5 km
500 to 1000 ft
800 to 1500m
200 to 500 ft
< 800m
< 200 ft
Symbols :   Thunderstorms  Fog  Heavy snow  Heavy precipitations  Wind > 20 kt






- Airport Elevation : 474 ft


KPTD - Potsdam Municipal-Damon field

CURRENT METAR :
  • 291435Z AUTO 23018G25KT 10SM CLR 27/18 A2985 RMK AO2

EXPIRED METARs :
  • 291415Z AUTO 23019G25KT 10SM CLR 26/19 A2986 RMK AO2
  • 291355Z AUTO 23018KT 10SM FEW040 FEW047 26/19 A2987 RMK AO2
  • 291335Z AUTO 23013G21KT 10SM SCT030 BKN039 BKN046 25/19 A2987 RMK AO2
  • 291315Z AUTO 23014G22KT 10SM SCT029 BKN034 BKN039 25/20 A2987 RMK AO2
  • 291255Z AUTO 22016KT 10SM SCT028 BKN035 25/20 A2987 RMK AO2
  • 291235Z AUTO 20013G20KT 10SM SCT029 25/20 A2987 RMK AO2
  • 291215Z AUTO 21014KT 10SM CLR 25/20 A2987 RMK AO2
  • 291155Z AUTO 21010G18KT 10SM CLR 24/20 A2987 RMK AO2

TAF N/A
KZBW FIR / North America



MET'MAP, your aeronautical weather chart ! - Copyright ORBIFLY December 2007 - Disclaimer

ORBIFLY MET'MAP TEAM :

Programming & Development : Alexandra Zaïnal
Concept & original design : Baudouin d'Aumeries
Assistance for programming : Marc-Olivier Méhu
Technical & hardware support : Manuel Goepfert

Contact : metmap@orbifly.com




SOURCES & CREDITS :

   NOAA